Time;durP1;ratioP1;P1;durP2;ratioP2;P2;SDS_P1;SDS_P2;PMS_P1;PMS_P2;Temp;Humidity;BMP_temperature;BMP_pressure;BME280_temperature;BME280_humidity;BME280_pressure;Samples;Min_cycle;Max_cycle;Signal;HPM_P1;HPM_P2
2023/02/03 00:14:22;;;;;;;11.35;6.32;;;;;;;-2.69;70.78;100917.44;30860515;28;96660;-68
2023/02/03 00:29:24;;;;;;;10.38;4.80;;;;;;;-2.75;70.48;100901.16;30859103;28;97392;-69
2023/02/03 00:44:25;;;;;;;6.90;4.82;;;;;;;-2.78;71.06;100903.06;30858470;28;96671;-69
2023/02/03 00:59:25;;;;;;;11.15;6.35;;;;;;;-2.76;71.76;100881.22;30856920;28;96996;-69
2023/02/03 01:14:26;;;;;;;9.30;5.68;;;;;;;-2.59;72.88;100871.78;30855152;28;96712;-68
2023/02/03 01:29:26;;;;;;;11.07;6.20;;;;;;;-2.61;73.08;100844.91;30854194;28;96705;-67
2023/02/03 01:44:38;;;;;;;11.75;7.45;;;;;;;-2.43;73.49;100815.38;30853991;28;96685;-68
2023/02/03 01:59:39;;;;;;;11.55;4.35;;;;;;;-2.27;73.76;100775.50;30852853;28;96942;-67
2023/02/03 02:14:41;;;;;;;17.08;8.60;;;;;;;-2.18;73.89;100722.03;30851657;28;96764;-69
2023/02/03 02:29:59;;;;;;;7.47;5.38;;;;;;;-2.18;73.88;100735.91;30857486;28;96675;-68
2023/02/03 02:45:14;;;;;;;10.60;5.40;;;;;;;-2.07;74.24;100717.94;30870092;28;97544;-69
2023/02/03 03:00:14;;;;;;;11.83;4.80;;;;;;;-1.76;74.83;100665.94;30867811;28;96786;-68
2023/02/03 03:15:21;;;;;;;11.55;5.20;;;;;;;-1.70;74.42;100626.44;30840230;28;96635;-67
2023/02/03 03:30:26;;;;;;;9.20;5.38;;;;;;;-1.63;74.81;100611.28;30742503;28;97572;-68
2023/02/03 03:45:34;;;;;;;9.70;4.77;;;;;;;-1.49;74.82;100603.56;30740365;28;97427;-68
2023/02/03 04:00:37;;;;;;;10.55;5.25;;;;;;;-1.43;74.99;100586.69;30740385;28;96558;-69
2023/02/03 04:15:38;;;;;;;14.73;6.03;;;;;;;-1.42;75.46;100578.78;30738973;28;97122;-68
2023/02/03 04:30:38;;;;;;;8.88;4.60;;;;;;;-1.21;75.38;100547.16;30737462;28;96662;-69
2023/02/03 04:45:38;;;;;;;7.93;3.97;;;;;;;-1.09;75.00;100507.25;30736168;28;96664;-68
2023/02/03 05:00:39;;;;;;;5.10;2.83;;;;;;;-1.06;74.69;100496.59;30734843;28;97312;-68
2023/02/03 05:15:39;;;;;;;8.98;3.70;;;;;;;-0.87;75.01;100472.00;30815133;28;97305;-64
2023/02/03 05:30:41;;;;;;;9.07;3.58;;;;;;;-0.90;75.15;100448.66;30838536;28;97455;-68
2023/02/03 05:45:41;;;;;;;6.38;2.80;;;;;;;-0.66;74.87;100435.03;30781434;28;97663;-69
2023/02/03 06:00:42;;;;;;;8.70;3.97;;;;;;;-0.57;75.07;100390.00;30755204;28;96706;-68
2023/02/03 06:15:43;;;;;;;5.05;3.15;;;;;;;-0.62;75.82;100363.28;30795515;28;96664;-67
2023/02/03 06:30:44;;;;;;;7.70;3.22;;;;;;;-0.58;76.54;100334.19;30785751;28;98463;-74
2023/02/03 06:45:48;;;;;;;7.25;4.35;;;;;;;-0.51;77.36;100290.16;30748103;28;97253;-67
2023/02/03 07:00:50;;;;;;;7.23;3.90;;;;;;;-0.37;78.06;100232.56;30742546;28;97576;-70
2023/02/03 07:15:51;;;;;;;10.10;4.00;;;;;;;-0.43;78.62;100219.84;30742251;28;96676;-69
2023/02/03 07:30:52;;;;;;;3.53;2.00;;;;;;;-0.48;79.60;100166.94;30807185;28;96625;-68
2023/02/03 07:45:52;;;;;;;6.40;2.65;;;;;;;-0.44;80.31;100144.88;30861366;28;96919;-66
2023/02/03 08:00:53;;;;;;;4.22;2.20;;;;;;;-0.47;80.61;100092.75;30859816;28;96663;-71
2023/02/03 08:15:53;;;;;;;4.10;2.60;;;;;;;-0.37;81.22;100045.84;30860539;28;97358;-73
2023/02/03 08:30:55;;;;;;;5.60;3.13;;;;;;;-0.26;81.48;100004.09;30859594;28;96635;-73
2023/02/03 08:45:55;;;;;;;3.40;1.92;;;;;;;-0.03;81.47;99973.69;30850204;28;96979;-75
2023/02/03 09:01:11;;;;;;;4.32;2.60;;;;;;;0.11;81.62;99943.91;30851578;28;96872;-75
2023/02/03 09:16:12;;;;;;;6.65;3.83;;;;;;;0.35;81.49;99903.78;30853487;28;96844;-76
2023/02/03 09:31:16;;;;;;;4.90;2.53;;;;;;;0.57;81.44;99873.38;30853300;28;96628;-77
2023/02/03 09:46:29;;;;;;;7.33;3.70;;;;;;;0.88;81.38;99822.09;30869740;28;97323;-76
2023/02/03 10:02:08;;;;;;;10.35;4.22;;;;;;;1.14;80.99;99795.66;30871731;28;96580;-74
2023/02/03 10:17:32;;;;;;;9.25;4.45;;;;;;;1.30;81.49;99741.00;30875503;28;97632;-77
2023/02/03 10:32:34;;;;;;;12.17;6.37;;;;;;;1.37;81.77;99682.75;30866163;28;96613;-77
2023/02/03 10:47:41;;;;;;;3.25;2.10;;;;;;;1.50;81.69;99628.31;30874478;28;96916;-71
2023/02/03 11:02:41;;;;;;;6.13;3.17;;;;;;;1.65;81.83;99574.56;30878694;28;97485;-79
2023/02/03 11:17:45;;;;;;;5.05;2.70;;;;;;;1.73;82.30;99534.50;30876488;28;96847;-74
2023/02/03 11:32:47;;;;;;;8.13;4.63;;;;;;;1.99;82.15;99487.63;30879025;28;98270;-71
2023/02/03 11:47:48;;;;;;;6.60;3.00;;;;;;;2.22;82.49;99437.50;30870366;28;97884;-76
2023/02/03 12:03:10;;;;;;;5.30;2.88;;;;;;;2.58;82.42;99408.09;30870057;28;96673;-70
2023/02/03 12:18:39;;;;;;;5.32;2.20;;;;;;;3.02;82.16;99374.25;30857636;28;96744;-78
2023/02/03 12:33:44;;;;;;;2.10;1.15;;;;;;;3.60;82.31;99332.94;30753318;28;96653;-75
2023/02/03 12:48:59;;;;;;;1.10;0.70;;;;;;;4.39;82.09;99311.16;30744478;28;97451;-67
2023/02/03 13:04:40;;;;;;;3.17;1.52;;;;;;;4.86;80.96;99269.63;30737712;28;96667;-72
2023/02/03 13:20:13;;;;;;;2.88;1.50;;;;;;;4.92;80.94;99258.41;30737205;28;96752;-66
2023/02/03 13:35:38;;;;;;;1.40;0.98;;;;;;;5.11;81.51;99269.75;30736388;28;96863;-69
2023/02/03 13:50:39;;;;;;;2.15;1.20;;;;;;;5.41;81.58;99276.31;30733399;28;97830;-67
2023/02/03 14:05:49;;;;;;;2.85;1.40;;;;;;;5.46;81.59;99316.28;30740250;28;96643;-67
2023/02/03 14:20:57;;;;;;;3.00;1.25;;;;;;;5.52;81.35;99302.47;30735037;28;97300;-68
2023/02/03 14:35:57;;;;;;;5.72;2.30;;;;;;;5.51;80.93;99319.28;30746473;28;96534;-70
2023/02/03 14:50:57;;;;;;;3.95;2.05;;;;;;;5.42;80.31;99352.75;30746538;28;97031;-76
2023/02/03 15:06:02;;;;;;;15.95;1.90;;;;;;;5.17;79.66;99356.28;30743576;28;97363;-71
2023/02/03 15:21:02;;;;;;;;;;;;;;;5.02;79.41;99375.31;30740725;28;96971;-70
2023/02/03 15:36:10;;;;;;;6.95;1.90;;;;;;;4.91;79.58;99368.47;30740013;28;96714;-72
2023/02/03 15:51:24;;;;;;;11.18;2.45;;;;;;;4.87;79.59;99372.38;30738907;28;97255;-70
2023/02/03 16:06:37;;;;;;;12.23;3.03;;;;;;;4.74;79.10;99401.81;30739605;28;97536;-71
2023/02/03 16:21:46;;;;;;;10.20;2.50;;;;;;;4.65;79.10;99413.28;30839732;28;97529;-72
2023/02/03 16:52:07;;;;;;;5.43;1.65;;;;;;;4.44;77.94;99494.50;30773881;28;96934;-69
2023/02/03 17:07:07;;;;;;;7.10;1.92;;;;;;;4.31;77.98;99498.31;30785807;28;97500;-70
2023/02/03 17:22:09;;;;;;;9.23;2.38;;;;;;;4.30;77.93;99509.00;30802351;28;98947;-71
2023/02/03 17:37:09;;;;;;;14.45;2.45;;;;;;;4.31;77.35;99510.69;30851664;28;97131;-70
2023/02/03 17:52:10;;;;;;;6.18;2.15;;;;;;;4.27;77.10;99533.84;30849858;28;96742;-71
2023/02/03 18:07:10;;;;;;;6.97;3.55;;;;;;;4.16;77.12;99526.16;30854646;28;96963;-63
2023/02/03 18:22:11;;;;;;;8.13;3.13;;;;;;;4.04;77.33;99542.13;30868614;28;97375;-71
2023/02/03 18:37:11;;;;;;;8.20;1.60;;;;;;;4.04;77.49;99539.47;30868296;28;96887;-66
2023/02/03 18:52:13;;;;;;;9.27;2.80;;;;;;;4.13;77.69;99547.50;30867115;28;96725;-70
2023/02/03 19:07:13;;;;;;;11.45;3.25;;;;;;;4.20;77.43;99559.97;30864634;28;96669;-63
2023/02/03 19:22:14;;;;;;;9.70;2.13;;;;;;;4.26;77.71;99555.91;30862765;28;96762;-63
2023/02/03 19:37:15;;;;;;;11.98;2.42;;;;;;;4.31;77.44;99545.78;30863786;28;96646;-63
2023/02/03 19:52:15;;;;;;;9.90;2.40;;;;;;;4.35;77.42;99536.59;30861902;28;96551;-63
2023/02/03 20:07:16;;;;;;;14.48;3.10;;;;;;;4.34;77.72;99534.94;30860512;28;96644;-69
2023/02/03 20:22:16;;;;;;;6.53;1.27;;;;;;;4.31;77.50;99539.69;30860165;28;97579;-67
2023/02/03 20:37:16;;;;;;;8.30;1.75;;;;;;;4.27;77.73;99556.78;30858067;28;96911;-63
2023/02/03 20:52:19;;;;;;;10.43;2.20;;;;;;;4.22;78.13;99551.91;30855197;28;96842;-64
2023/02/03 21:07:21;;;;;;;6.07;1.70;;;;;;;4.15;78.49;99535.03;30853990;28;96664;-63
2023/02/03 21:22:24;;;;;;;11.85;2.45;;;;;;;4.09;78.92;99525.88;30853305;28;96793;-63
2023/02/03 21:37:37;;;;;;;8.60;1.42;;;;;;;4.09;79.01;99527.69;30853753;28;97525;-64
2023/02/03 21:52:38;;;;;;;6.25;1.55;;;;;;;4.02;79.20;99530.91;30852913;28;96765;-63
2023/02/03 22:07:39;;;;;;;4.60;1.17;;;;;;;4.05;79.12;99538.50;30852993;28;96561;-64
2023/02/03 22:22:39;;;;;;;3.03;1.50;;;;;;;4.07;79.46;99523.41;30851765;28;97416;-64
2023/02/03 22:37:39;;;;;;;2.80;1.75;;;;;;;4.09;79.59;99525.03;30851055;28;96673;-63
2023/02/03 22:52:40;;;;;;;3.05;0.73;;;;;;;4.12;79.48;99516.88;30865858;28;97261;-63
2023/02/03 23:07:40;;;;;;;2.22;0.73;;;;;;;4.10;79.20;99517.00;30869178;28;96617;-66
2023/02/03 23:22:42;;;;;;;2.90;1.23;;;;;;;4.04;79.50;99513.13;30866838;28;96699;-63
2023/02/03 23:37:42;;;;;;;6.25;1.38;;;;;;;3.96;79.99;99515.66;30866439;28;97297;-66
2023/02/03 23:52:44;;;;;;;1.17;0.68;;;;;;;3.87;79.72;99558.69;30864203;28;96619;-63
